createdAt,value
2023-01-19T00:00:22.323Z,93863.00
2023-01-19T00:01:22.269Z,93863.00
2023-01-19T00:02:22.308Z,93865.00
2023-01-19T00:03:22.296Z,93865.00
2023-01-19T00:04:22.243Z,93867.00
2023-01-19T00:05:22.236Z,93867.00
2023-01-19T00:06:22.279Z,93871.00
2023-01-19T00:54:43.747Z,93920.00
2023-01-19T00:55:44.648Z,93918.00
2023-01-19T00:56:44.621Z,93920.00
2023-01-19T00:57:44.610Z,93922.00
2023-01-19T00:58:44.613Z,93922.00
2023-01-19T00:59:44.588Z,93924.00
2023-01-19T01:00:44.648Z,93926.00
2023-01-19T01:01:46.227Z,93926.00
2023-01-19T01:02:44.796Z,93926.00
2023-01-19T01:03:44.558Z,93924.00
2023-01-19T01:04:44.551Z,93926.00
2023-01-19T01:05:44.542Z,93928.00
2023-01-19T01:06:44.525Z,93926.00
2023-01-19T01:07:44.572Z,93926.00
2023-01-19T01:08:44.508Z,93924.00
2023-01-19T01:09:44.504Z,93926.00
2023-01-19T01:10:44.516Z,93928.00
2023-01-19T01:11:44.488Z,93926.00
2023-01-19T01:12:56.060Z,93928.00
2023-01-19T01:13:44.468Z,93930.00
2023-01-19T01:14:44.461Z,93930.00
2023-01-19T01:15:44.445Z,93931.00
2023-01-19T01:16:44.466Z,93930.00
2023-01-19T01:17:44.430Z,93930.00
2023-01-19T01:18:44.420Z,93930.00
2023-01-19T01:19:44.415Z,93931.00
2023-01-19T01:20:44.402Z,93930.00
2023-01-19T01:21:44.403Z,93931.00
2023-01-19T01:22:44.388Z,93933.00
2023-01-19T01:23:44.384Z,93937.00
2023-01-19T01:24:44.384Z,93935.00
2023-01-19T01:25:44.362Z,93933.00
2023-01-19T01:26:44.386Z,93935.00
2023-01-19T01:27:44.346Z,93931.00
2023-01-19T01:28:44.336Z,93931.00
2023-01-19T01:29:44.326Z,93931.00
2023-01-19T01:30:44.328Z,93931.00
2023-01-19T01:31:44.432Z,93931.00
2023-01-19T01:32:44.303Z,93931.00
2023-01-19T01:33:44.296Z,93935.00
2023-01-19T01:34:44.284Z,93933.00
2023-01-19T01:35:44.274Z,93933.00
2023-01-19T01:36:44.268Z,93933.00
2023-01-19T01:37:44.283Z,93935.00
2023-01-19T01:38:44.255Z,93939.00
2023-01-19T01:39:44.247Z,93937.00
2023-01-19T01:40:44.243Z,93939.00
2023-01-19T01:41:44.222Z,93941.00
2023-01-19T01:42:44.259Z,93941.00
2023-01-19T01:43:44.205Z,93943.00
2023-01-19T01:44:44.203Z,93943.00
2023-01-19T01:45:44.338Z,93943.00
2023-01-19T01:46:44.188Z,93943.00
2023-01-19T01:47:44.183Z,93945.00
2023-01-19T01:48:44.174Z,93945.00
2023-01-19T01:49:44.158Z,93947.00
2023-01-19T01:50:44.147Z,93949.00
2023-01-19T01:51:44.141Z,93953.00
2023-01-19T01:52:44.132Z,93953.00
2023-01-19T01:53:44.136Z,93953.00
2023-01-19T01:54:44.123Z,93957.00
2023-01-19T01:55:44.110Z,93955.00
2023-01-19T01:56:44.101Z,93957.00
2023-01-19T01:57:44.095Z,93959.00
2023-01-19T01:58:44.114Z,93959.00
2023-01-19T01:59:44.073Z,93959.00
2023-01-19T02:00:44.109Z,93963.00
2023-01-19T02:01:44.384Z,93963.00
2023-01-19T02:02:44.277Z,93965.00
2023-01-19T02:03:44.262Z,93967.00
2023-01-19T02:04:44.251Z,93969.00
2023-01-19T02:05:44.240Z,93967.00
2023-01-19T02:06:44.231Z,93965.00
2023-01-19T02:07:44.230Z,93965.00
2023-01-19T02:08:44.216Z,93969.00
2023-01-19T02:09:44.214Z,93963.00
2023-01-19T02:10:44.201Z,93965.00
2023-01-19T02:11:44.189Z,93969.00
2023-01-19T02:12:44.189Z,93969.00
2023-01-19T02:13:44.175Z,93971.00
2023-01-19T02:14:44.194Z,93969.00
2023-01-19T02:15:44.154Z,93971.00
2023-01-19T02:16:44.211Z,93973.00
2023-01-19T02:17:44.149Z,93973.00
2023-01-19T02:18:44.135Z,93971.00
2023-01-19T02:19:44.128Z,93969.00
2023-01-19T02:20:44.113Z,93969.00
2023-01-19T02:21:44.115Z,93967.00
2023-01-19T02:22:44.099Z,93967.00
2023-01-19T02:23:44.093Z,93965.00
2023-01-19T02:24:44.098Z,93967.00
2023-01-19T02:25:44.071Z,93969.00
2023-01-19T02:26:44.070Z,93969.00
2023-01-19T02:27:44.054Z,93969.00
2023-01-19T02:28:44.053Z,93969.00
2023-01-19T02:29:44.047Z,93971.00
2023-01-19T02:30:44.110Z,93971.00
2023-01-19T02:31:44.025Z,93971.00
2023-01-19T02:32:44.016Z,93973.00
2023-01-19T02:33:44.006Z,93973.00
2023-01-19T02:34:44.002Z,93973.00
2023-01-19T02:35:43.996Z,93975.00
2023-01-19T02:36:43.991Z,93973.00
2023-01-19T02:37:43.983Z,93973.00
2023-01-19T02:38:43.969Z,93969.00
2023-01-19T02:39:43.954Z,93973.00
2023-01-19T02:40:43.953Z,93971.00
2023-01-19T02:41:43.937Z,93969.00
2023-01-19T02:42:43.930Z,93963.00
2023-01-19T02:43:43.920Z,93965.00
2023-01-19T02:44:43.921Z,93967.00
2023-01-19T02:45:43.946Z,93965.00
2023-01-19T02:46:43.919Z,93969.00
2023-01-19T02:47:43.884Z,93967.00
2023-01-19T02:48:43.881Z,93971.00
2023-01-19T02:49:43.873Z,93969.00
2023-01-19T02:50:43.866Z,93975.00
2023-01-19T02:51:43.856Z,93971.00
2023-01-19T02:52:43.844Z,93973.00
2023-01-19T02:53:43.902Z,93973.00
2023-01-19T02:54:43.826Z,93973.00
2023-01-19T02:55:43.817Z,93969.00
2023-01-19T02:56:43.809Z,93973.00
2023-01-19T02:57:43.809Z,93973.00
2023-01-19T02:58:43.800Z,93973.00
2023-01-19T02:59:43.786Z,93971.00
2023-01-19T03:00:43.800Z,93971.00
2023-01-19T03:01:43.901Z,93969.00
2023-01-19T03:02:43.966Z,93967.00
2023-01-19T03:03:43.762Z,93969.00
2023-01-19T03:04:43.740Z,93969.00
2023-01-19T03:05:43.757Z,93969.00
2023-01-19T03:06:43.729Z,93969.00
2023-01-19T03:07:43.729Z,93965.00
2023-01-19T03:08:43.715Z,93963.00
2023-01-19T03:09:43.702Z,93963.00
2023-01-19T03:10:43.692Z,93961.00
2023-01-19T03:11:43.693Z,93959.00
2023-01-19T03:12:43.683Z,93959.00
2023-01-19T03:13:43.691Z,93957.00
2023-01-19T03:14:43.669Z,93957.00
2023-01-19T03:15:43.710Z,93957.00
2023-01-19T03:16:43.688Z,93957.00
2023-01-19T03:17:43.635Z,93959.00
2023-01-19T03:18:43.672Z,93959.00
2023-01-19T03:19:43.617Z,93963.00
2023-01-19T03:20:43.608Z,93961.00
2023-01-19T03:21:43.611Z,93967.00
2023-01-19T03:22:43.589Z,93965.00
2023-01-19T03:23:43.580Z,93969.00
2023-01-19T03:24:43.572Z,93971.00
2023-01-19T03:25:43.567Z,93969.00
2023-01-19T03:26:43.561Z,93973.00
2023-01-19T03:27:43.577Z,93973.00
2023-01-19T03:28:43.541Z,93975.00
2023-01-19T03:29:43.536Z,93981.00
2023-01-19T03:30:43.584Z,93979.00
2023-01-19T03:31:43.517Z,93977.00
2023-01-19T03:32:43.511Z,93977.00
2023-01-19T03:33:43.502Z,93977.00
2023-01-19T03:34:43.514Z,93977.00
2023-01-19T03:35:43.489Z,93979.00
2023-01-19T03:36:43.477Z,93979.00
2023-01-19T03:37:43.462Z,93981.00
2023-01-19T03:38:43.452Z,93983.00
2023-01-19T03:39:43.448Z,93983.00
2023-01-19T03:40:43.445Z,93986.00
2023-01-19T03:41:43.485Z,93983.00
2023-01-19T03:42:43.421Z,93986.00
2023-01-19T03:43:43.423Z,93985.00
2023-01-19T03:44:43.407Z,93985.00
2023-01-19T03:45:43.394Z,93985.00
2023-01-19T03:46:43.384Z,93983.00
2023-01-19T03:47:43.383Z,93985.00
2023-01-19T03:48:43.387Z,93983.00
2023-01-19T03:49:43.370Z,93985.00
2023-01-19T03:50:43.379Z,93986.00
2023-01-19T03:51:43.339Z,93986.00
2023-01-19T03:52:43.330Z,93988.00
2023-01-19T03:53:43.328Z,93988.00
2023-01-19T03:54:43.319Z,93990.00
2023-01-19T03:55:43.306Z,93992.00
2023-01-19T03:56:43.325Z,93994.00
2023-01-19T03:57:43.292Z,93994.00
2023-01-19T03:58:43.285Z,93996.00
2023-01-19T03:59:43.271Z,93996.00
2023-01-19T04:00:43.262Z,94000.00
2023-01-19T04:01:43.431Z,94000.00
2023-01-19T04:02:43.309Z,93998.00
2023-01-19T04:03:43.260Z,94002.00
2023-01-19T04:04:43.244Z,94002.00
2023-01-19T04:05:43.227Z,94004.00
2023-01-19T04:06:43.240Z,94004.00
2023-01-19T04:07:43.220Z,94004.00
2023-01-19T04:08:43.194Z,94008.00
2023-01-19T04:09:43.191Z,94006.00
2023-01-19T04:10:43.180Z,94008.00
2023-01-19T04:11:43.171Z,94010.00
2023-01-19T04:12:43.175Z,94014.00
2023-01-19T04:13:43.161Z,94014.00
2023-01-19T04:14:43.156Z,94010.00
2023-01-19T04:15:43.170Z,94012.00
2023-01-19T04:16:43.134Z,94012.00
2023-01-19T04:17:43.119Z,94012.00
2023-01-19T04:18:43.115Z,94014.00
2023-01-19T04:19:43.119Z,94016.00
2023-01-19T04:20:43.094Z,94012.00
2023-01-19T04:21:43.089Z,94012.00
2023-01-19T04:22:43.100Z,94012.00
2023-01-19T04:39:42.938Z,94014.00
2023-01-19T04:40:42.922Z,94014.00
2023-01-19T04:41:42.916Z,94016.00
2023-01-19T04:42:42.903Z,94018.00
2023-01-19T04:43:42.894Z,94018.00
2023-01-19T04:44:42.892Z,94018.00
2023-01-19T04:45:42.880Z,94018.00
2023-01-19T04:46:42.917Z,94020.00
2023-01-19T04:47:42.926Z,94020.00
2023-01-19T04:48:42.865Z,94018.00
2023-01-19T04:49:42.859Z,94020.00
2023-01-19T04:50:42.846Z,94020.00
2023-01-19T04:51:42.828Z,94020.00
2023-01-19T04:52:42.827Z,94016.00
2023-01-19T04:53:42.815Z,94018.00
2023-01-19T04:54:42.836Z,94018.00
2023-01-19T04:55:42.814Z,94018.00
2023-01-19T06:53:41.799Z,94116.00
2023-01-19T06:54:42.973Z,94114.00
2023-01-19T07:06:41.707Z,94126.00
2023-01-19T07:07:45.174Z,94126.00
2023-01-19T07:08:41.689Z,94127.00
2023-01-19T07:11:26.541Z,94126.00
2023-01-19T07:11:41.652Z,94126.00
2023-01-19T07:32:41.629Z,94155.00
2023-01-19T07:41:50.180Z,94161.00
2023-01-19T07:56:41.302Z,94180.00
2023-01-19T08:22:41.110Z,94196.00
2023-01-19T08:33:41.546Z,94215.00
2023-01-19T10:59:40.086Z,94255.00
2023-01-19T15:37:37.360Z,94257.00
2023-01-19T15:38:37.339Z,94257.00
2023-01-19T21:46:34.212Z,94329.00
2023-01-19T21:47:34.198Z,94331.00
2023-01-19T21:48:34.200Z,94333.00
2023-01-19T21:49:34.187Z,94333.00
2023-01-19T21:50:34.190Z,94335.00
2023-01-19T21:51:34.176Z,94337.00
2023-01-19T21:52:34.774Z,94337.00
2023-01-19T21:53:34.152Z,94339.00
2023-01-19T21:54:34.149Z,94341.00
2023-01-19T21:55:34.143Z,94343.00
2023-01-19T21:56:34.132Z,94343.00
2023-01-19T21:57:34.145Z,94343.00
2023-01-19T21:58:34.119Z,94343.00
2023-01-19T21:59:34.105Z,94343.00
2023-01-19T22:00:34.096Z,94343.00
2023-01-19T22:01:34.283Z,94345.00
2023-01-19T22:02:38.969Z,94343.00
2023-01-19T22:03:34.201Z,94339.00
2023-01-19T22:04:34.068Z,94341.00
2023-01-19T22:05:36.360Z,94339.00
2023-01-19T22:06:34.040Z,94341.00
2023-01-19T22:07:34.036Z,94337.00
2023-01-19T22:08:34.029Z,94337.00
2023-01-19T22:09:34.018Z,94335.00
2023-01-19T22:10:34.010Z,94333.00
2023-01-19T22:11:34.003Z,94331.00
2023-01-19T22:12:33.992Z,94333.00
2023-01-19T22:13:34.020Z,94331.00
2023-01-19T22:14:33.985Z,94333.00
2023-01-19T22:15:33.967Z,94331.00
2023-01-19T22:16:34.032Z,94335.00
2023-01-19T22:17:33.948Z,94331.00
2023-01-19T22:18:36.000Z,94333.00
2023-01-19T22:19:33.933Z,94331.00
2023-01-19T22:20:33.927Z,94333.00
2023-01-19T22:21:33.939Z,94331.00
2023-01-19T22:22:33.909Z,94331.00
2023-01-19T22:23:33.897Z,94331.00
2023-01-19T22:24:33.893Z,94331.00
2023-01-19T22:25:33.910Z,94327.00
2023-01-19T22:26:33.894Z,94329.00
2023-01-19T22:27:33.881Z,94331.00
2023-01-19T22:28:33.856Z,94331.00
2023-01-19T22:29:33.871Z,94331.00
2023-01-19T22:30:33.930Z,94329.00
2023-01-19T22:31:34.076Z,94333.00
2023-01-19T22:32:33.824Z,94333.00
2023-01-19T22:33:33.854Z,94335.00
2023-01-19T22:34:33.808Z,94337.00
2023-01-19T22:35:33.799Z,94335.00
2023-01-19T22:36:34.795Z,94335.00
2023-01-19T22:37:33.777Z,94335.00
2023-01-19T22:38:33.772Z,94333.00
2023-01-19T22:39:33.762Z,94333.00
2023-01-19T22:40:33.761Z,94333.00
2023-01-19T22:41:33.753Z,94331.00
2023-01-19T22:42:33.736Z,94331.00
2023-01-19T22:43:33.731Z,94329.00
2023-01-19T22:44:33.722Z,94331.00
2023-01-19T22:45:33.742Z,94331.00
2023-01-19T22:46:33.706Z,94331.00
2023-01-19T22:47:33.696Z,94335.00
2023-01-19T22:48:33.688Z,94335.00
2023-01-19T22:49:33.684Z,94335.00
2023-01-19T22:50:33.669Z,94335.00
2023-01-19T22:51:33.666Z,94337.00
2023-01-19T22:52:33.651Z,94337.00
2023-01-19T22:53:33.641Z,94335.00
2023-01-19T22:54:33.650Z,94335.00
2023-01-19T22:55:33.635Z,94339.00
2023-01-19T22:56:33.643Z,94339.00
2023-01-19T22:57:33.607Z,94339.00
2023-01-19T22:58:33.600Z,94339.00
2023-01-19T22:59:33.604Z,94337.00
2023-01-19T23:00:33.587Z,94337.00
2023-01-19T23:01:33.903Z,94335.00
2023-01-19T23:02:33.568Z,94335.00
2023-01-19T23:04:33.552Z,94333.00
2023-01-19T23:05:33.586Z,94335.00
2023-01-19T23:06:33.540Z,94335.00
2023-01-19T23:07:33.524Z,94337.00
2023-01-19T23:08:33.524Z,94337.00
2023-01-19T23:09:33.510Z,94337.00
2023-01-19T23:10:33.504Z,94339.00
2023-01-19T23:11:35.712Z,94339.00
2023-01-19T23:12:33.492Z,94341.00
2023-01-19T23:13:33.477Z,94343.00
2023-01-19T23:14:33.474Z,94341.00
2023-01-19T23:15:33.490Z,94345.00
2023-01-19T23:16:33.465Z,94345.00
2023-01-19T23:17:33.476Z,94347.00
2023-01-19T23:18:33.436Z,94349.00
2023-01-19T23:19:33.421Z,94351.00
2023-01-19T23:20:33.416Z,94353.00
2023-01-19T23:21:33.462Z,94355.00
2023-01-19T23:22:33.404Z,94357.00
2023-01-19T23:23:33.394Z,94357.00
2023-01-19T23:24:33.383Z,94359.00
2023-01-19T23:25:33.372Z,94359.00
2023-01-19T23:26:33.362Z,94357.00
2023-01-19T23:27:33.362Z,94357.00
2023-01-19T23:28:33.343Z,94357.00
2023-01-19T23:29:33.337Z,94355.00
2023-01-19T23:30:33.382Z,94355.00
2023-01-19T23:31:33.420Z,94353.00
2023-01-19T23:32:33.321Z,94353.00
2023-01-19T23:33:33.331Z,94353.00
2023-01-19T23:34:33.299Z,94351.00
2023-01-19T23:35:33.289Z,94351.00
2023-01-19T23:36:33.279Z,94349.00
2023-01-19T23:37:33.268Z,94351.00
2023-01-19T23:38:33.262Z,94351.00
2023-01-19T23:39:33.256Z,94351.00
2023-01-19T23:40:33.245Z,94351.00
2023-01-19T23:41:33.287Z,94353.00
2023-01-19T23:42:33.228Z,94353.00
2023-01-19T23:43:33.219Z,94353.00
2023-01-19T23:44:33.211Z,94353.00
2023-01-19T23:45:33.207Z,94353.00
2023-01-19T23:46:33.277Z,94353.00
2023-01-19T23:47:33.190Z,94351.00
2023-01-19T23:48:33.173Z,94353.00
2023-01-19T23:49:33.196Z,94353.00
2023-01-19T23:50:33.163Z,94353.00
2023-01-19T23:51:33.152Z,94353.00
2023-01-19T23:52:33.145Z,94353.00
2023-01-19T23:53:33.135Z,94349.00
2023-01-19T23:54:33.132Z,94349.00
2023-01-19T23:55:33.117Z,94347.00
2023-01-19T23:56:33.106Z,94347.00
2023-01-19T23:57:33.101Z,94349.00
2023-01-19T23:58:33.089Z,94349.00
2023-01-19T23:59:33.089Z,94349.00
